This is the latest recevied weather packets stored in our database for station/object DB0OHL. If no packets are shown the sender has not sent any weather packets the latest 10 day(s).
| Time | Temp. | Humidity | Pressure | Rain* | Wind** | Luminosity | Snow |
|---|---|---|---|---|---|---|---|
| 1777511173 | 7.78° C | 62% | 1028.3 hPa | 0 mm | - | - | - |
| 1777510570 | 8.33° C | 61% | 1028.2 hPa | 0 mm | - | - | - |
| 1777509968 | 8.33° C | 61% | 1028 hPa | 0 mm | - | - | - |
| 1777508763 | 8.89° C | 61% | 1027.8 hPa | 0 mm | - | - | - |
| 1777508160 | 8.89° C | 60% | 1028.1 hPa | 0 mm | - | - | - |
| 1777507558 | 8.89° C | 60% | 1028.1 hPa | 0 mm | - | - | - |
| 1777506353 | 9.44° C | 60% | 1028 hPa | 0 mm | - | - | - |
| 1777505148 | 9.44° C | 59% | 1027.7 hPa | 0 mm | - | - | - |
| 1777502738 | 10.56° C | 57% | 1027.5 hPa | 0 mm | - | - | - |
| 1777494965 | 11.67° C | 53% | 1026.2 hPa | 0 mm | - | - | - |
| 1777493760 | 11.67° C | 54% | 1026.2 hPa | 0 mm | - | - | - |
| 1777492555 | 12.22° C | 53% | 1025.9 hPa | 0 mm | - | - | - |
| 1777491350 | 12.78° C | 52% | 1025.6 hPa | 0 mm | - | - | - |
| 1777490747 | 12.78° C | 51% | 1025.5 hPa | 0 mm | - | - | - |
| 1777490145 | 12.78° C | 52% | 1025.4 hPa | 0 mm | - | - | - |
| 1777488940 | 13.33° C | 51% | 1025.2 hPa | 0 mm | - | - | - |
| 1777483517 | 16.67° C | 47% | 1024.3 hPa | 0 mm | - | - | - |
| 1777474539 | 17.78° C | 45% | 1024.5 hPa | 0 mm | - | - | - |
| 1777473334 | 17.78° C | 44% | 1024.4 hPa | 0 mm | - | - | - |
| 1777469116 | 17.78° C | 45% | 1024.5 hPa | 0 mm | - | - | - |
| 1777468573 | 18.33° C | 45% | 1024.6 hPa | 0 mm | - | - | - |
| 1777467971 | 17.78° C | 44% | 1024.6 hPa | 0 mm | - | - | - |
| 1777465561 | 17.78° C | 44% | 1024.7 hPa | 0 mm | - | - | - |
| 1777462548 | 17.22° C | 45% | 1025.2 hPa | 0 mm | - | - | - |
| 1777461945 | 17.22° C | 44% | 1024.9 hPa | 0 mm | - | - | - |
* Rain latest hour (hover to see other rain measurements)
** Current wind speed in m/s (hover to see current wind gust speed)